Time;durP1;ratioP1;P1;durP2;ratioP2;P2;SDS_P1;SDS_P2;PMS_P1;PMS_P2;Temp;Humidity;BMP_temperature;BMP_pressure;BME280_temperature;BME280_humidity;BME280_pressure;Samples;Min_cycle;Max_cycle;Signal;HPM_P1;HPM_P2
2022/07/30 00:00:01;;;;;;;14.50;8.27;;;;;;;;;;4976718;28;20038;-71
2022/07/30 00:02:27;;;;;;;20.17;11.60;;;;;;;;;;4977273;28;20023;-71
2022/07/30 00:04:53;;;;;;;17.75;12.35;;;;;;;;;;4976308;28;20043;-69
2022/07/30 00:07:19;;;;;;;17.58;12.88;;;;;;;;;;4976658;28;20485;-71
2022/07/30 00:09:45;;;;;;;23.35;14.27;;;;;;;;;;4976620;28;20038;-73
2022/07/30 00:12:11;;;;;;;20.42;14.13;;;;;;;;;;4976594;28;20031;-71
2022/07/30 00:14:37;;;;;;;20.27;11.95;;;;;;;;;;4976565;28;20093;-70
2022/07/30 00:17:04;;;;;;;23.17;14.20;;;;;;;;;;4959111;28;20105;-70
2022/07/30 00:19:30;;;;;;;20.95;14.50;;;;;;;;;;4977204;28;20034;-70
2022/07/30 00:21:56;;;;;;;20.73;15.93;;;;;;;;;;4976329;28;20563;-73
2022/07/30 00:24:23;;;;;;;23.98;17.25;;;;;;;;;;4976614;28;20416;-72
2022/07/30 00:26:49;;;;;;;23.33;16.77;;;;;;;;;;4976279;28;20019;-69
2022/07/30 00:29:15;;;;;;;29.65;21.23;;;;;;;;;;4976276;28;20441;-70
2022/07/30 00:31:41;;;;;;;28.40;21.85;;;;;;;;;;4976228;28;20034;-72
2022/07/30 00:34:07;;;;;;;30.15;22.00;;;;;;;;;;4976151;28;20438;-72
2022/07/30 00:36:33;;;;;;;29.65;21.65;;;;;;;;;;4976419;28;20023;-69
2022/07/30 00:38:59;;;;;;;25.70;21.48;;;;;;;;;;4975280;28;20054;-71
2022/07/30 00:41:25;;;;;;;22.30;15.23;;;;;;;;;;4975963;28;20033;-70
2022/07/30 00:43:52;;;;;;;22.63;15.18;;;;;;;;;;4976238;28;20023;-72
2022/07/30 00:46:18;;;;;;;20.80;14.90;;;;;;;;;;4976505;28;20101;-69
2022/07/30 00:48:44;;;;;;;22.42;13.85;;;;;;;;;;4976227;28;20030;-72
2022/07/30 00:51:10;;;;;;;20.08;13.25;;;;;;;;;;4975857;28;20501;-72
2022/07/30 00:53:37;;;;;;;20.95;14.35;;;;;;;;;;4975832;28;20049;-70
2022/07/30 00:56:04;;;;;;;22.00;16.10;;;;;;;;;;4976022;28;20022;-69
2022/07/30 00:58:30;;;;;;;25.30;17.88;;;;;;;;;;4976315;28;20030;-70
2022/07/30 01:00:56;;;;;;;22.50;15.75;;;;;;;;;;4975605;28;20027;-69
2022/07/30 01:03:22;;;;;;;27.55;18.42;;;;;;;;;;4975900;28;20061;-71
2022/07/30 01:05:49;;;;;;;25.27;17.38;;;;;;;;;;4975592;28;20023;-69
2022/07/30 01:08:15;;;;;;;27.48;19.40;;;;;;;;;;4975546;28;20027;-72
2022/07/30 01:10:41;;;;;;;27.63;18.27;;;;;;;;;;4975495;28;20118;-72
2022/07/30 01:13:07;;;;;;;24.42;17.75;;;;;;;;;;4975511;28;20101;-70
2022/07/30 01:15:34;;;;;;;26.10;17.17;;;;;;;;;;4975431;28;20480;-72
2022/07/30 01:18:02;;;;;;;29.10;20.98;;;;;;;;;;4975812;28;20073;-72
2022/07/30 01:20:47;;;;;;;23.13;16.00;;;;;;;;;;4975315;28;20026;-72
2022/07/30 01:23:17;;;;;;;21.80;13.45;;;;;;;;;;4975465;28;20041;-71
2022/07/30 01:25:49;;;;;;;19.13;13.27;;;;;;;;;;4975280;28;20031;-71
2022/07/30 01:28:17;;;;;;;19.15;12.93;;;;;;;;;;4975738;28;20023;-72
2022/07/30 01:30:44;;;;;;;26.63;18.05;;;;;;;;;;4975452;28;20045;-71
2022/07/30 01:33:12;;;;;;;26.60;19.42;;;;;;;;;;4975053;28;20034;-70
2022/07/30 01:35:38;;;;;;;23.73;16.98;;;;;;;;;;4975052;28;20030;-71
2022/07/30 01:38:05;;;;;;;24.02;16.50;;;;;;;;;;4974998;28;20031;-71
2022/07/30 01:40:32;;;;;;;25.25;18.38;;;;;;;;;;4975539;28;20046;-73
2022/07/30 01:42:59;;;;;;;27.30;19.92;;;;;;;;;;4974833;28;20404;-70
2022/07/30 01:45:27;;;;;;;24.60;18.17;;;;;;;;;;4974882;28;20047;-73
2022/07/30 01:47:54;;;;;;;30.15;20.45;;;;;;;;;;4974853;28;20525;-72
2022/07/30 01:50:21;;;;;;;26.58;20.35;;;;;;;;;;4974670;28;20030;-71
2022/07/30 01:52:49;;;;;;;29.02;21.45;;;;;;;;;;4974762;28;20033;-70
2022/07/30 01:55:16;;;;;;;28.23;19.73;;;;;;;;;;4975296;28;20027;-71
2022/07/30 01:57:43;;;;;;;24.27;17.80;;;;;;;;;;4974684;28;20031;-70
2022/07/30 02:00:09;;;;;;;24.30;18.08;;;;;;;;;;4974886;28;20022;-73
2022/07/30 02:02:37;;;;;;;26.38;18.35;;;;;;;;;;4974555;28;20037;-73
2022/07/30 02:05:04;;;;;;;25.27;17.90;;;;;;;;;;4974219;28;20066;-70
2022/07/30 02:07:38;;;;;;;25.73;18.48;;;;;;;;;;4974622;28;20105;-72
2022/07/30 02:10:23;;;;;;;29.95;19.25;;;;;;;;;;4974536;28;20023;-70
2022/07/30 02:12:51;;;;;;;27.38;18.90;;;;;;;;;;4975115;28;20031;-71
2022/07/30 02:15:26;;;;;;;26.20;17.98;;;;;;;;;;4974709;28;20050;-70
2022/07/30 02:18:01;;;;;;;28.65;18.13;;;;;;;;;;4975467;28;20101;-73
2022/07/30 02:20:28;;;;;;;24.17;17.27;;;;;;;;;;4974391;28;20034;-71
2022/07/30 02:22:56;;;;;;;25.50;17.75;;;;;;;;;;4974320;28;20082;-73
2022/07/30 02:25:23;;;;;;;25.50;18.10;;;;;;;;;;4974358;28;20030;-68
2022/07/30 02:27:54;;;;;;;27.20;17.40;;;;;;;;;;4974599;28;20026;-69
2022/07/30 02:30:23;;;;;;;24.10;17.70;;;;;;;;;;4974608;28;20027;-71
2022/07/30 02:32:50;;;;;;;25.88;17.98;;;;;;;;;;4974340;28;20030;-72
2022/07/30 02:35:20;;;;;;;24.70;17.50;;;;;;;;;;4974341;28;20034;-72
2022/07/30 02:37:47;;;;;;;24.33;17.55;;;;;;;;;;4974570;28;20023;-72
2022/07/30 02:40:17;;;;;;;26.90;18.48;;;;;;;;;;4974233;28;20070;-72
2022/07/30 02:42:45;;;;;;;22.95;16.40;;;;;;;;;;4974685;28;20051;-72
2022/07/30 02:45:12;;;;;;;24.38;18.02;;;;;;;;;;4974187;28;20101;-70
2022/07/30 02:47:39;;;;;;;27.38;17.83;;;;;;;;;;4974148;28;20023;-72
2022/07/30 02:50:05;;;;;;;26.83;18.70;;;;;;;;;;4974123;28;20098;-69
2022/07/30 02:52:32;;;;;;;26.55;17.88;;;;;;;;;;4956792;28;20078;-72
2022/07/30 02:54:59;;;;;;;30.25;19.40;;;;;;;;;;4974379;28;20389;-71
2022/07/30 02:57:26;;;;;;;26.50;19.48;;;;;;;;;;4974060;28;20022;-69
2022/07/30 02:59:53;;;;;;;26.63;17.75;;;;;;;;;;4974006;28;20053;-72
2022/07/30 03:02:19;;;;;;;25.83;18.60;;;;;;;;;;4976402;28;20054;-72
2022/07/30 03:04:47;;;;;;;21.33;16.27;;;;;;;;;;4977437;28;20130;-72
2022/07/30 03:07:13;;;;;;;24.63;17.08;;;;;;;;;;4977760;28;20038;-72
2022/07/30 03:09:42;;;;;;;21.00;16.20;;;;;;;;;;4977762;28;20102;-70
2022/07/30 03:12:10;;;;;;;26.92;18.58;;;;;;;;;;4977710;28;20027;-72
2022/07/30 03:14:36;;;;;;;27.75;19.65;;;;;;;;;;4977667;28;20509;-69
2022/07/30 03:17:03;;;;;;;26.65;19.75;;;;;;;;;;4977628;28;20520;-72
2022/07/30 03:19:31;;;;;;;26.20;18.38;;;;;;;;;;4978096;28;20054;-72
2022/07/30 03:21:58;;;;;;;31.20;19.08;;;;;;;;;;4977725;28;20033;-69
2022/07/30 03:24:25;;;;;;;25.55;17.25;;;;;;;;;;4977694;28;20093;-72
2022/07/30 03:26:52;;;;;;;26.67;18.58;;;;;;;;;;4977385;28;20111;-70
2022/07/30 03:29:19;;;;;;;25.60;18.08;;;;;;;;;;4977657;28;20031;-71
2022/07/30 03:31:45;;;;;;;24.00;17.80;;;;;;;;;;4977391;28;20031;-73
2022/07/30 03:34:12;;;;;;;24.27;17.17;;;;;;;;;;4977569;28;20394;-69
2022/07/30 03:36:40;;;;;;;23.27;17.08;;;;;;;;;;4977324;28;20031;-73
2022/07/30 03:39:06;;;;;;;24.83;17.17;;;;;;;;;;4977492;28;20027;-73
2022/07/30 03:41:33;;;;;;;25.05;17.95;;;;;;;;;;4977012;28;20068;-71
2022/07/30 03:43:59;;;;;;;24.13;17.83;;;;;;;;;;4977619;28;20371;-71
2022/07/30 03:46:26;;;;;;;23.25;17.38;;;;;;;;;;4977078;28;20029;-70
2022/07/30 03:48:53;;;;;;;23.70;17.08;;;;;;;;;;4977033;28;20027;-69
2022/07/30 03:51:19;;;;;;;27.98;18.58;;;;;;;;;;4977271;28;20470;-72
2022/07/30 03:53:46;;;;;;;22.33;16.95;;;;;;;;;;4976989;28;20066;-73
2022/07/30 03:56:13;;;;;;;25.20;18.20;;;;;;;;;;4977174;28;20031;-72
2022/07/30 03:58:39;;;;;;;24.55;17.95;;;;;;;;;;4976847;28;20109;-71
2022/07/30 04:01:06;;;;;;;27.30;17.77;;;;;;;;;;4976822;28;20046;-72
2022/07/30 04:03:32;;;;;;;25.13;18.60;;;;;;;;;;4976459;28;20077;-72
2022/07/30 04:05:59;;;;;;;22.13;16.33;;;;;;;;;;4959079;28;20029;-72
2022/07/30 04:08:25;;;;;;;23.23;17.00;;;;;;;;;;4976759;28;20058;-72
2022/07/30 04:10:51;;;;;;;27.25;16.73;;;;;;;;;;4976629;28;20062;-70
2022/07/30 04:13:17;;;;;;;23.50;17.70;;;;;;;;;;4975291;28;20038;-72
2022/07/30 04:16:05;;;;;;;22.90;16.33;;;;;;;;;;4976550;28;20055;-71
2022/07/30 04:18:37;;;;;;;21.52;16.02;;;;;;;;;;4977042;28;20045;-72
2022/07/30 04:21:04;;;;;;;24.08;16.83;;;;;;;;;;4977030;28;20038;-71
2022/07/30 04:23:31;;;;;;;22.10;16.42;;;;;;;;;;4976360;28;20106;-71
2022/07/30 04:25:58;;;;;;;23.55;17.35;;;;;;;;;;4976881;28;20015;-71
2022/07/30 04:28:26;;;;;;;22.45;16.42;;;;;;;;;;4976897;28;20026;-71
2022/07/30 04:30:53;;;;;;;20.65;15.95;;;;;;;;;;4958972;28;20019;-70
2022/07/30 04:33:19;;;;;;;21.95;16.42;;;;;;;;;;4976419;28;20508;-71
2022/07/30 04:35:45;;;;;;;23.65;16.85;;;;;;;;;;4976437;28;20446;-71
2022/07/30 04:38:12;;;;;;;25.70;16.83;;;;;;;;;;4976136;28;20105;-70
2022/07/30 04:40:38;;;;;;;20.60;15.55;;;;;;;;;;4958750;28;20517;-70
2022/07/30 04:43:04;;;;;;;24.30;16.58;;;;;;;;;;4976220;28;20037;-74
2022/07/30 04:45:31;;;;;;;24.00;15.45;;;;;;;;;;4976564;28;20106;-70
2022/07/30 04:47:57;;;;;;;20.40;14.50;;;;;;;;;;4975977;28;20050;-71
2022/07/30 04:50:24;;;;;;;23.52;16.40;;;;;;;;;;4975909;28;20581;-71
2022/07/30 04:52:51;;;;;;;19.92;14.18;;;;;;;;;;4975826;28;20544;-71
2022/07/30 04:55:18;;;;;;;22.42;15.68;;;;;;;;;;4975825;28;20038;-72
2022/07/30 04:57:46;;;;;;;21.40;15.55;;;;;;;;;;4975745;28;20038;-72
2022/07/30 05:00:12;;;;;;;27.38;16.05;;;;;;;;;;4975832;28;20110;-71
2022/07/30 05:02:39;;;;;;;22.63;17.15;;;;;;;;;;4975888;28;20062;-70
2022/07/30 05:05:06;;;;;;;22.23;16.30;;;;;;;;;;4975198;28;20054;-70
2022/07/30 05:07:33;;;;;;;21.85;14.75;;;;;;;;;;4976101;28;20027;-70
2022/07/30 05:09:59;;;;;;;22.38;15.35;;;;;;;;;;4975614;28;20078;-71
2022/07/30 05:12:36;;;;;;;27.15;15.80;;;;;;;;;;4975533;28;20114;-71
2022/07/30 05:15:03;;;;;;;21.88;16.02;;;;;;;;;;4975445;28;20027;-70
2022/07/30 05:17:29;;;;;;;25.30;17.48;;;;;;;;;;4975499;28;20401;-71
2022/07/30 05:19:55;;;;;;;23.08;16.05;;;;;;;;;;4975907;28;20611;-70
2022/07/30 05:22:21;;;;;;;20.90;15.30;;;;;;;;;;4975247;28;20113;-69
2022/07/30 05:24:47;;;;;;;20.40;14.10;;;;;;;;;;4974930;28;20023;-72
2022/07/30 05:27:13;;;;;;;24.67;15.70;;;;;;;;;;4975213;28;20026;-72
2022/07/30 05:29:39;;;;;;;24.00;15.00;;;;;;;;;;4975181;28;20023;-70
2022/07/30 05:32:05;;;;;;;20.08;14.55;;;;;;;;;;4975112;28;20102;-73
2022/07/30 05:34:31;;;;;;;23.95;15.60;;;;;;;;;;4975379;28;20027;-70
2022/07/30 05:36:57;;;;;;;19.48;14.10;;;;;;;;;;4975327;28;20449;-70
2022/07/30 05:39:23;;;;;;;21.50;14.88;;;;;;;;;;4975309;28;20027;-70
2022/07/30 05:41:49;;;;;;;25.50;14.52;;;;;;;;;;4974902;28;20473;-70
2022/07/30 05:44:15;;;;;;;19.38;14.35;;;;;;;;;;4957589;28;20114;-70
2022/07/30 05:46:41;;;;;;;19.50;13.85;;;;;;;;;;4974903;28;20474;-73
2022/07/30 05:49:07;;;;;;;26.50;13.98;;;;;;;;;;4975342;28;20038;-71
2022/07/30 05:51:33;;;;;;;19.02;13.15;;;;;;;;;;4974839;28;20477;-73
2022/07/30 05:53:59;;;;;;;22.13;12.98;;;;;;;;;;4957489;28;20023;-69
2022/07/30 05:56:25;;;;;;;19.27;13.45;;;;;;;;;;4975025;28;20138;-71
2022/07/30 05:58:51;;;;;;;20.27;11.50;;;;;;;;;;4974731;28;20027;-72
2022/07/30 06:01:17;;;;;;;17.50;11.63;;;;;;;;;;4974612;28;20057;-71
2022/07/30 06:03:43;;;;;;;16.23;10.63;;;;;;;;;;4974690;28;20043;-72
2022/07/30 06:06:09;;;;;;;16.42;10.35;;;;;;;;;;4974912;28;20146;-71
2022/07/30 06:08:35;;;;;;;12.75;9.00;;;;;;;;;;4974552;28;20023;-70
2022/07/30 06:11:01;;;;;;;20.92;9.10;;;;;;;;;;4974589;28;20027;-74
2022/07/30 06:13:28;;;;;;;12.05;8.80;;;;;;;;;;4974553;28;20579;-71
2022/07/30 06:15:54;;;;;;;11.63;8.18;;;;;;;;;;4974511;28;20031;-72
2022/07/30 06:18:20;;;;;;;12.68;9.45;;;;;;;;;;4975263;28;20023;-70
2022/07/30 06:20:48;;;;;;;12.30;8.50;;;;;;;;;;4974424;28;20027;-71
2022/07/30 06:23:14;;;;;;;14.63;9.07;;;;;;;;;;4974372;28;20047;-72
2022/07/30 06:25:40;;;;;;;12.30;8.75;;;;;;;;;;4974655;28;20030;-70
2022/07/30 06:28:06;;;;;;;12.27;8.85;;;;;;;;;;4974368;28;20027;-71
2022/07/30 06:30:32;;;;;;;11.95;9.00;;;;;;;;;;4974518;28;20370;-72
2022/07/30 06:32:58;;;;;;;11.45;8.45;;;;;;;;;;4974301;28;20118;-73
2022/07/30 06:35:24;;;;;;;10.82;8.55;;;;;;;;;;4956944;28;20031;-73
2022/07/30 06:37:50;;;;;;;10.68;7.88;;;;;;;;;;4977649;28;20027;-69
2022/07/30 06:40:17;;;;;;;11.80;7.95;;;;;;;;;;4978259;28;20023;-74
2022/07/30 06:42:42;;;;;;;12.55;8.27;;;;;;;;;;4978201;28;20489;-70
2022/07/30 06:45:09;;;;;;;10.70;8.25;;;;;;;;;;4978182;28;20023;-71
2022/07/30 06:47:35;;;;;;;10.63;7.85;;;;;;;;;;4978716;28;20027;-72
2022/07/30 06:50:02;;;;;;;10.93;8.13;;;;;;;;;;4978645;28;20026;-70
2022/07/30 06:52:28;;;;;;;8.45;7.07;;;;;;;;;;4978573;28;20027;-70
2022/07/30 06:54:54;;;;;;;9.32;7.18;;;;;;;;;;4978307;28;20033;-73
2022/07/30 06:57:20;;;;;;;9.48;7.95;;;;;;;;;;4977965;28;20109;-72
2022/07/30 06:59:46;;;;;;;8.85;6.20;;;;;;;;;;4978169;28;20027;-70
2022/07/30 07:02:12;;;;;;;8.00;6.57;;;;;;;;;;4977861;28;20037;-71
2022/07/30 07:04:38;;;;;;;8.23;5.90;;;;;;;;;;4977758;28;20102;-72
2022/07/30 07:07:04;;;;;;;9.20;6.55;;;;;;;;;;4977818;28;20063;-73
2022/07/30 07:09:30;;;;;;;8.82;6.70;;;;;;;;;;4977773;28;20022;-73
2022/07/30 07:11:56;;;;;;;8.05;6.30;;;;;;;;;;4977789;28;20034;-70
2022/07/30 07:14:22;;;;;;;11.52;7.15;;;;;;;;;;4977995;28;20031;-72
2022/07/30 07:16:48;;;;;;;9.23;6.55;;;;;;;;;;4977661;28;20485;-69
2022/07/30 07:19:15;;;;;;;10.90;6.05;;;;;;;;;;4978403;28;20023;-71
2022/07/30 07:21:41;;;;;;;6.90;4.85;;;;;;;;;;4977476;28;20050;-71
2022/07/30 07:24:07;;;;;;;7.55;4.97;;;;;;;;;;4977525;28;20106;-72
2022/07/30 07:26:34;;;;;;;6.78;4.80;;;;;;;;;;4977452;28;20027;-73
2022/07/30 07:29:00;;;;;;;7.55;5.60;;;;;;;;;;4977741;28;20034;-70
2022/07/30 07:31:26;;;;;;;9.52;5.65;;;;;;;;;;4977383;28;20042;-71
2022/07/30 07:33:55;;;;;;;9.52;5.60;;;;;;;;;;4977336;28;20073;-69
2022/07/30 07:36:22;;;;;;;;;;;;;;;;;;4977663;28;20507;-73
2022/07/30 07:38:49;;;;;;;5.72;3.92;;;;;;;;;;4959760;28;19956;-72
2022/07/30 07:41:15;;;;;;;4.55;3.22;;;;;;;;;;4977251;28;20507;-70
2022/07/30 07:43:41;;;;;;;5.45;3.80;;;;;;;;;;4977078;28;20122;-72
2022/07/30 07:46:07;;;;;;;6.28;3.17;;;;;;;;;;4977386;28;20080;-72
2022/07/30 07:48:33;;;;;;;6.55;3.30;;;;;;;;;;4976773;28;20031;-72
2022/07/30 07:50:59;;;;;;;5.50;3.78;;;;;;;;;;4977011;28;20521;-73
2022/07/30 07:53:25;;;;;;;6.63;3.97;;;;;;;;;;4977277;28;20492;-72
2022/07/30 07:55:52;;;;;;;7.10;4.18;;;;;;;;;;4976918;28;20031;-71
2022/07/30 07:58:18;;;;;;;7.57;3.83;;;;;;;;;;4976920;28;20031;-74
2022/07/30 08:00:44;;;;;;;5.10;3.55;;;;;;;;;;4976802;28;20031;-73
2022/07/30 08:03:10;;;;;;;5.53;3.60;;;;;;;;;;4976560;28;20038;-72
2022/07/30 08:05:36;;;;;;;5.53;3.00;;;;;;;;;;4977095;28;20497;-71
2022/07/30 08:08:02;;;;;;;3.65;2.35;;;;;;;;;;4976674;28;20058;-72
2022/07/30 08:10:28;;;;;;;4.07;2.42;;;;;;;;;;4976994;28;20523;-72
2022/07/30 08:12:54;;;;;;;3.60;2.35;;;;;;;;;;4976647;28;20031;-70
2022/07/30 08:15:20;;;;;;;5.05;2.22;;;;;;;;;;4976608;28;20041;-70
2022/07/30 08:17:46;;;;;;;12.55;2.60;;;;;;;;;;4976544;28;20109;-69
2022/07/30 08:20:13;;;;;;;4.32;2.72;;;;;;;;;;4977075;28;20058;-74
2022/07/30 08:22:40;;;;;;;7.45;2.70;;;;;;;;;;4976455;28;20037;-71
2022/07/30 08:25:06;;;;;;;4.82;2.10;;;;;;;;;;4976427;28;20485;-71
2022/07/30 08:27:32;;;;;;;2.80;2.13;;;;;;;;;;4976658;28;20031;-71
2022/07/30 08:29:58;;;;;;;4.40;2.90;;;;;;;;;;4976576;28;20082;-73
2022/07/30 08:32:24;;;;;;;3.13;2.22;;;;;;;;;;4958926;28;20031;-71
2022/07/30 08:34:50;;;;;;;2.97;2.20;;;;;;;;;;4976236;28;20389;-71
2022/07/30 08:37:16;;;;;;;2.28;1.90;;;;;;;;;;4958822;28;20129;-70
2022/07/30 08:39:42;;;;;;;3.17;2.20;;;;;;;;;;4976397;28;20070;-74
2022/07/30 08:42:08;;;;;;;4.13;2.00;;;;;;;;;;4975985;28;20109;-70
2022/07/30 08:44:35;;;;;;;2.42;1.40;;;;;;;;;;4976050;28;20023;-74
2022/07/30 08:47:02;;;;;;;1.88;1.50;;;;;;;;;;4976513;28;20027;-71
2022/07/30 08:49:28;;;;;;;1.60;1.40;;;;;;;;;;4958554;28;20054;-71
2022/07/30 08:51:54;;;;;;;2.15;1.50;;;;;;;;;;4975966;28;20030;-71
2022/07/30 08:54:21;;;;;;;2.05;1.60;;;;;;;;;;4958494;28;20401;-71
2022/07/30 08:56:50;;;;;;;2.30;1.70;;;;;;;;;;4975854;28;20022;-72
2022/07/30 08:59:17;;;;;;;3.75;2.00;;;;;;;;;;4975049;28;20462;-72
2022/07/30 09:01:43;;;;;;;4.25;1.83;;;;;;;;;;4975578;28;20031;-72
2022/07/30 09:04:09;;;;;;;2.53;1.70;;;;;;;;;;4975497;28;20074;-72
2022/07/30 09:06:36;;;;;;;3.65;2.20;;;;;;;;;;4975646;28;20547;-70
2022/07/30 09:09:02;;;;;;;5.28;2.03;;;;;;;;;;4975861;28;20105;-73
2022/07/30 09:11:28;;;;;;;2.60;1.73;;;;;;;;;;4975536;28;20489;-73
2022/07/30 09:13:54;;;;;;;2.55;1.75;;;;;;;;;;4975775;28;20389;-72
2022/07/30 09:16:21;;;;;;;3.50;1.92;;;;;;;;;;4975407;28;20031;-72
2022/07/30 09:18:48;;;;;;;3.83;2.13;;;;;;;;;;4958189;28;20059;-73
2022/07/30 09:21:14;;;;;;;4.80;1.77;;;;;;;;;;4975314;28;20038;-72
2022/07/30 09:23:40;;;;;;;3.22;1.77;;;;;;;;;;4975466;28;20516;-73
2022/07/30 09:26:06;;;;;;;3.40;1.60;;;;;;;;;;4975528;28;20031;-70
2022/07/30 09:28:33;;;;;;;3.42;1.92;;;;;;;;;;4975429;28;20073;-71
2022/07/30 09:30:59;;;;;;;3.33;1.90;;;;;;;;;;4975100;28;20117;-71
2022/07/30 09:33:36;;;;;;;2.22;1.75;;;;;;;;;;4975401;28;20058;-73
2022/07/30 09:36:04;;;;;;;3.22;1.85;;;;;;;;;;4975147;28;20035;-74
2022/07/30 09:38:41;;;;;;;4.53;1.92;;;;;;;;;;4975026;28;20031;-71
2022/07/30 09:41:07;;;;;;;5.35;2.22;;;;;;;;;;4975595;28;20054;-71
2022/07/30 09:43:40;;;;;;;4.05;2.00;;;;;;;;;;4974836;28;20109;-71
2022/07/30 09:46:06;;;;;;;4.45;2.00;;;;;;;;;;4975313;28;20027;-71
2022/07/30 09:48:32;;;;;;;7.75;2.05;;;;;;;;;;4957395;28;20508;-71
2022/07/30 09:50:58;;;;;;;3.10;1.60;;;;;;;;;;4974825;28;20023;-71
2022/07/30 09:53:25;;;;;;;3.00;1.90;;;;;;;;;;4975073;28;20033;-69
2022/07/30 09:55:51;;;;;;;5.00;1.60;;;;;;;;;;4974792;28;20030;-72
2022/07/30 09:58:17;;;;;;;3.65;1.92;;;;;;;;;;4974767;28;20512;-73
2022/07/30 10:00:43;;;;;;;5.72;1.90;;;;;;;;;;4974651;28;20441;-69
2022/07/30 10:03:19;;;;;;;4.25;1.88;;;;;;;;;;4974461;28;20026;-70
2022/07/30 10:05:49;;;;;;;2.78;1.45;;;;;;;;;;4975112;28;20037;-71
2022/07/30 10:08:15;;;;;;;3.53;1.70;;;;;;;;;;4974658;28;20023;-71
2022/07/30 10:10:42;;;;;;;4.78;1.77;;;;;;;;;;4974540;28;20027;-73
2022/07/30 10:13:09;;;;;;;2.47;1.40;;;;;;;;;;4974867;28;20026;-72
2022/07/30 10:15:36;;;;;;;4.13;1.70;;;;;;;;;;4974566;28;20111;-72
2022/07/30 10:18:03;;;;;;;2.65;1.70;;;;;;;;;;4974464;28;20030;-70
2022/07/30 10:20:29;;;;;;;3.65;1.55;;;;;;;;;;4974962;28;20027;-69
2022/07/30 10:22:55;;;;;;;2.00;1.77;;;;;;;;;;4974863;28;20054;-70
2022/07/30 10:25:23;;;;;;;3.20;1.92;;;;;;;;;;4974370;28;20514;-71
2022/07/30 10:27:49;;;;;;;1.90;1.33;;;;;;;;;;4974634;28;20026;-69
2022/07/30 10:30:15;;;;;;;3.30;1.70;;;;;;;;;;4974617;28;20027;-69
2022/07/30 10:32:42;;;;;;;10.45;7.88;;;;;;;;;;4974337;28;20031;-71
2022/07/30 10:35:08;;;;;;;7.80;2.38;;;;;;;;;;4974540;28;20379;-71
2022/07/30 10:37:35;;;;;;;2.28;1.73;;;;;;;;;;4974513;28;20034;-71
2022/07/30 10:40:09;;;;;;;4.97;1.80;;;;;;;;;;4974180;28;20041;-68
2022/07/30 10:42:39;;;;;;;2.40;1.75;;;;;;;;;;4974745;28;20073;-71
2022/07/30 10:45:30;;;;;;;3.35;1.58;;;;;;;;;;4974798;28;20511;-71
2022/07/30 10:47:57;;;;;;;4.03;1.52;;;;;;;;;;4974689;28;20416;-74
2022/07/30 10:50:27;;;;;;;3.08;1.50;;;;;;;;;;4974029;28;20049;-71
2022/07/30 10:52:59;;;;;;;1.95;1.50;;;;;;;;;;4974190;28;20081;-72
2022/07/30 10:55:27;;;;;;;9.63;2.47;;;;;;;;;;4974092;28;20511;-70
2022/07/30 10:57:58;;;;;;;1.83;1.45;;;;;;;;;;4974131;28;20062;-70
2022/07/30 11:00:25;;;;;;;2.22;1.60;;;;;;;;;;4974518;28;20034;-73
2022/07/30 11:03:09;;;;;;;4.85;1.55;;;;;;;;;;4974220;28;20027;-72
2022/07/30 11:05:35;;;;;;;3.20;1.70;;;;;;;;;;4974302;28;20039;-70
2022/07/30 11:08:20;;;;;;;3.45;1.58;;;;;;;;;;4974248;28;20082;-72
2022/07/30 11:10:46;;;;;;;2.88;1.48;;;;;;;;;;4973991;28;20025;-69
2022/07/30 11:13:12;;;;;;;1.98;1.48;;;;;;;;;;4974548;28;20115;-73
2022/07/30 11:15:53;;;;;;;3.25;1.85;;;;;;;;;;4973945;28;20027;-71
2022/07/30 11:18:20;;;;;;;2.05;1.73;;;;;;;;;;4974504;28;20031;-72
2022/07/30 11:21:04;;;;;;;3.58;1.70;;;;;;;;;;4974635;28;20110;-72
2022/07/30 11:23:38;;;;;;;7.57;1.75;;;;;;;;;;4958687;28;20436;-69
2022/07/30 11:26:04;;;;;;;4.65;1.65;;;;;;;;;;4977510;28;20023;-71
2022/07/30 11:28:37;;;;;;;1.73;1.50;;;;;;;;;;4977481;28;20027;-69
2022/07/30 11:31:04;;;;;;;3.20;1.67;;;;;;;;;;4959802;28;20026;-70
2022/07/30 11:33:30;;;;;;;1.42;1.25;;;;;;;;;;4977719;28;20537;-68
2022/07/30 11:36:16;;;;;;;4.15;1.88;;;;;;;;;;4977107;28;20029;-69
2022/07/30 11:38:59;;;;;;;2.00;1.80;;;;;;;;;;4977337;28;20062;-71
2022/07/30 11:41:25;;;;;;;3.10;1.60;;;;;;;;;;4977307;28;20114;-69
2022/07/30 11:44:10;;;;;;;3.75;1.75;;;;;;;;;;4977653;28;20378;-72
2022/07/30 11:46:36;;;;;;;4.22;1.92;;;;;;;;;;4977387;28;20562;-70
2022/07/30 11:49:04;;;;;;;4.63;1.70;;;;;;;;;;4977211;28;20062;-71
2022/07/30 11:51:39;;;;;;;5.82;1.80;;;;;;;;;;4977184;28;20136;-72
2022/07/30 11:54:06;;;;;;;5.03;1.90;;;;;;;;;;4977013;28;20031;-71
2022/07/30 11:56:32;;;;;;;2.97;1.58;;;;;;;;;;4977054;28;20374;-71
2022/07/30 11:59:06;;;;;;;2.15;1.60;;;;;;;;;;4977025;28;20031;-70
2022/07/30 12:01:33;;;;;;;3.20;1.60;;;;;;;;;;4976860;28;20034;-70
2022/07/30 12:04:02;;;;;;;2.50;1.83;;;;;;;;;;4976793;28;20158;-73
2022/07/30 12:06:30;;;;;;;1.83;1.60;;;;;;;;;;4976803;28;20018;-69
2022/07/30 12:08:57;;;;;;;1.70;1.60;;;;;;;;;;4977026;28;20030;-69
2022/07/30 12:11:23;;;;;;;5.40;1.60;;;;;;;;;;4960220;28;20035;-71
2022/07/30 12:13:58;;;;;;;6.60;1.80;;;;;;;;;;4976742;28;20085;-69
2022/07/30 12:16:24;;;;;;;2.15;1.60;;;;;;;;;;4976706;28;20030;-70
2022/07/30 12:18:50;;;;;;;4.10;1.88;;;;;;;;;;4976852;28;20500;-70
2022/07/30 12:21:17;;;;;;;2.10;1.65;;;;;;;;;;4976789;28;20051;-69
2022/07/30 12:23:53;;;;;;;2.35;1.70;;;;;;;;;;4976492;28;20030;-70
2022/07/30 12:26:26;;;;;;;6.63;1.75;;;;;;;;;;4976990;28;20027;-72
2022/07/30 12:28:53;;;;;;;3.08;1.80;;;;;;;;;;4976942;28;20154;-73
2022/07/30 12:31:19;;;;;;;3.60;1.40;;;;;;;;;;4976827;28;20597;-72
2022/07/30 12:33:46;;;;;;;1.90;1.70;;;;;;;;;;4975427;28;20031;-72
2022/07/30 12:36:23;;;;;;;3.58;1.45;;;;;;;;;;4976014;28;20050;-73
2022/07/30 12:38:53;;;;;;;2.25;1.50;;;;;;;;;;4976582;28;20066;-73
2022/07/30 12:41:20;;;;;;;2.78;1.80;;;;;;;;;;4976496;28;20118;-76
2022/07/30 12:43:50;;;;;;;3.28;1.63;;;;;;;;;;4958618;28;20452;-72
2022/07/30 12:46:20;;;;;;;1.77;1.67;;;;;;;;;;4976600;28;20046;-72
2022/07/30 12:48:49;;;;;;;2.95;1.60;;;;;;;;;;4976566;28;20098;-73
2022/07/30 12:51:15;;;;;;;4.22;1.90;;;;;;;;;;4958647;28;20054;-73
2022/07/30 12:53:41;;;;;;;2.50;1.38;;;;;;;;;;4976190;28;20035;-73
2022/07/30 12:56:18;;;;;;;2.65;1.60;;;;;;;;;;4976211;28;20031;-72
2022/07/30 12:58:44;;;;;;;3.72;1.70;;;;;;;;;;4976136;28;20030;-72
2022/07/30 13:01:11;;;;;;;3.40;1.40;;;;;;;;;;4976223;28;20113;-70
2022/07/30 13:03:38;;;;;;;2.47;1.20;;;;;;;;;;4975496;28;20050;-72
2022/07/30 13:06:22;;;;;;;3.55;1.23;;;;;;;;;;4975706;28;20027;-73
2022/07/30 13:08:58;;;;;;;2.03;1.40;;;;;;;;;;4958160;28;20023;-70
2022/07/30 13:11:25;;;;;;;2.58;1.55;;;;;;;;;;4976088;28;20031;-70
2022/07/30 13:13:52;;;;;;;3.80;1.55;;;;;;;;;;4958159;28;20410;-72
2022/07/30 13:16:19;;;;;;;2.47;1.83;;;;;;;;;;4975517;28;20545;-72
2022/07/30 13:18:45;;;;;;;3.33;1.63;;;;;;;;;;4975409;28;20026;-72
2022/07/30 13:21:12;;;;;;;1.50;1.40;;;;;;;;;;4976446;28;20065;-71
2022/07/30 13:23:39;;;;;;;3.45;1.40;;;;;;;;;;4975572;28;20065;-71
2022/07/30 13:26:06;;;;;;;2.67;1.48;;;;;;;;;;4975218;28;20057;-71
2022/07/30 13:28:33;;;;;;;1.25;1.10;;;;;;;;;;4975120;28;20050;-73
2022/07/30 13:30:59;;;;;;;1.58;1.17;;;;;;;;;;4975217;28;20023;-71
2022/07/30 13:33:25;;;;;;;2.08;1.23;;;;;;;;;;4975227;28;20050;-73
2022/07/30 13:35:51;;;;;;;1.50;1.23;;;;;;;;;;4975100;28;20049;-73
2022/07/30 13:38:17;;;;;;;2.30;1.20;;;;;;;;;;4975086;28;20401;-73
2022/07/30 13:40:43;;;;;;;2.35;1.42;;;;;;;;;;4975021;28;20031;-73
2022/07/30 13:43:09;;;;;;;1.65;1.30;;;;;;;;;;4974973;28;20030;-70
2022/07/30 13:45:36;;;;;;;4.55;1.50;;;;;;;;;;4974952;28;20049;-71
2022/07/30 13:48:02;;;;;;;2.35;1.52;;;;;;;;;;4974954;28;20031;-74
2022/07/30 13:50:28;;;;;;;2.40;1.48;;;;;;;;;;4975223;28;20473;-71
2022/07/30 13:52:54;;;;;;;3.40;1.60;;;;;;;;;;4974866;28;20532;-72
2022/07/30 13:55:20;;;;;;;1.98;1.48;;;;;;;;;;4974841;28;20031;-72
2022/07/30 13:57:46;;;;;;;4.10;1.55;;;;;;;;;;4975084;28;20486;-72
2022/07/30 14:00:13;;;;;;;3.55;1.40;;;;;;;;;;4974617;28;20113;-71
2022/07/30 14:02:39;;;;;;;2.10;1.33;;;;;;;;;;4975143;28;20027;-70
2022/07/30 14:05:08;;;;;;;3.30;1.35;;;;;;;;;;4974254;28;20054;-71
2022/07/30 14:07:34;;;;;;;2.47;1.63;;;;;;;;;;4974719;28;20018;-73
2022/07/30 14:10:01;;;;;;;1.55;1.10;;;;;;;;;;4974613;28;20030;-73
2022/07/30 14:12:27;;;;;;;2.03;1.20;;;;;;;;;;4974586;28;20035;-72
2022/07/30 14:14:53;;;;;;;3.00;1.50;;;;;;;;;;4974540;28;20054;-71
2022/07/30 14:17:19;;;;;;;1.85;1.27;;;;;;;;;;4974761;28;20027;-73
2022/07/30 14:19:45;;;;;;;2.47;1.35;;;;;;;;;;4975348;28;20051;-72
2022/07/30 14:22:30;;;;;;;1.50;1.40;;;;;;;;;;4974382;28;20540;-70
2022/07/30 14:24:56;;;;;;;1.75;1.38;;;;;;;;;;4957087;28;20097;-72
2022/07/30 14:27:22;;;;;;;1.50;1.38;;;;;;;;;;4974430;28;20497;-74
2022/07/30 14:29:49;;;;;;;3.15;1.50;;;;;;;;;;4974651;28;20023;-74
2022/07/30 14:32:15;;;;;;;1.30;1.20;;;;;;;;;;4974397;28;20034;-71